Time;durP1;ratioP1;P1;durP2;ratioP2;P2;SDS_P1;SDS_P2;PMS_P1;PMS_P2;Temp;Humidity;BMP_temperature;BMP_pressure;BME280_temperature;BME280_humidity;BME280_pressure;Samples;Min_cycle;Max_cycle;Signal;HPM_P1;HPM_P2
2023/12/15 06:00:41;;;;;;;9.40;5.15;;;5.50;90.90;;;;;;4933369;23;20258;-75
2023/12/15 06:02:44;;;;;;;;;;;5.40;90.70;;;;;;4083137;29;20044;-79
2023/12/15 06:04:46;;;;;;;8.30;5.07;;;5.40;90.80;;;;;;4084752;29;20009;-80
2023/12/15 06:06:48;;;;;;;10.05;5.40;;;5.40;91.00;;;;;;4084602;29;20099;-78
2023/12/15 06:08:50;;;;;;;11.07;4.97;;;5.40;90.80;;;;;;4084619;29;20047;-79
2023/12/15 06:10:52;;;;;;;9.05;5.15;;;5.40;90.90;;;;;;4084366;29;20043;-80
2023/12/15 06:12:54;;;;;;;9.63;5.07;;;5.40;90.70;;;;;;4084394;29;20056;-80
2023/12/15 06:14:56;;;;;;;12.73;5.88;;;5.40;90.60;;;;;;4084539;29;20052;-80
2023/12/15 06:17:00;;;;;;;8.50;4.68;;;5.50;90.70;;;;;;4084539;29;20360;-80
2023/12/15 06:19:01;;;;;;;9.82;5.00;;;5.50;90.60;;;;;;4084474;29;20481;-78
2023/12/15 06:21:03;;;;;;;8.98;5.30;;;5.50;90.40;;;;;;4084638;29;20067;-79
2023/12/15 06:23:05;;;;;;;8.43;4.75;;;5.40;90.40;;;;;;4084636;29;20123;-80
2023/12/15 06:25:08;;;;;;;9.73;4.82;;;5.40;90.10;;;;;;4084600;29;20052;-79
2023/12/15 06:27:10;;;;;;;9.48;4.88;;;5.40;90.20;;;;;;4084995;29;20485;-77
2023/12/15 06:29:12;;;;;;;8.05;4.75;;;5.40;90.30;;;;;;4085490;29;20099;-78
2023/12/15 06:31:14;;;;;;;8.05;4.45;;;5.40;90.30;;;;;;4085918;29;20528;-80
2023/12/15 06:33:17;;;;;;;8.00;5.00;;;5.30;90.20;;;;;;4084418;29;20051;-80
2023/12/15 06:35:19;;;;;;;8.10;4.88;;;5.30;90.20;;;;;;4084515;29;20070;-78
2023/12/15 06:37:20;;;;;;;7.50;5.00;;;5.30;90.10;;;;;;4084713;29;20070;-80
2023/12/15 06:39:22;;;;;;;9.15;4.97;;;5.30;90.10;;;;;;4085985;29;20111;-78
2023/12/15 06:41:24;;;;;;;9.07;4.95;;;5.30;90.10;;;;;;4085899;29;20107;-77
2023/12/15 06:43:26;;;;;;;8.75;5.07;;;5.30;90.10;;;;;;4085638;29;20052;-78
2023/12/15 06:45:28;;;;;;;8.52;4.80;;;5.30;90.20;;;;;;4085841;29;20052;-78
2023/12/15 06:47:30;;;;;;;9.40;5.40;;;5.30;90.10;;;;;;4085107;29;20043;-78
2023/12/15 06:49:33;;;;;;;19.73;10.55;;;5.30;90.30;;;;;;4084308;29;20235;-77
2023/12/15 06:51:35;;;;;;;9.18;5.57;;;5.30;90.40;;;;;;4084481;29;20449;-79
2023/12/15 06:53:37;;;;;;;9.35;5.32;;;5.30;90.30;;;;;;4084587;29;20043;-79
2023/12/15 06:55:39;;;;;;;9.63;5.22;;;5.30;90.30;;;;;;4087116;29;20055;-79
2023/12/15 06:57:41;;;;;;;8.85;5.15;;;5.30;90.40;;;;;;4087324;29;20071;-79
2023/12/15 06:59:43;;;;;;;9.82;5.70;;;5.20;90.30;;;;;;4087177;29;20052;-79
2023/12/15 07:01:45;;;;;;;9.45;5.65;;;5.20;90.20;;;;;;4097741;29;20058;-79
2023/12/15 07:03:48;;;;;;;8.60;5.35;;;5.30;90.30;;;;;;4102837;29;20055;-79
2023/12/15 07:05:51;;;;;;;9.43;5.65;;;5.20;90.20;;;;;;4102947;29;20098;-77
2023/12/15 07:07:53;;;;;;;8.38;5.35;;;5.30;90.20;;;;;;4102848;29;20495;-80
2023/12/15 07:09:55;;;;;;;11.05;6.22;;;5.20;90.30;;;;;;4103026;29;20098;-80
2023/12/15 07:11:58;;;;;;;8.77;5.25;;;5.20;90.20;;;;;;4102742;29;20043;-80
2023/12/15 07:14:01;;;;;;;9.05;5.95;;;5.20;90.20;;;;;;4103035;29;20477;-80
2023/12/15 07:16:03;;;;;;;9.75;5.97;;;5.20;90.30;;;;;;4102852;29;20142;-80
2023/12/15 07:18:05;;;;;;;8.10;4.97;;;5.20;90.40;;;;;;4103032;29;20106;-80
2023/12/15 07:20:08;;;;;;;9.57;5.50;;;5.30;90.30;;;;;;4102984;29;20055;-80
2023/12/15 07:22:12;;;;;;;9.60;5.97;;;5.30;90.10;;;;;;4102941;29;20130;-79
2023/12/15 07:24:13;;;;;;;9.18;5.85;;;5.30;90.10;;;;;;4102871;29;20086;-80
2023/12/15 07:26:17;;;;;;;10.52;6.32;;;5.30;90.10;;;;;;4102927;29;20106;-78
2023/12/15 07:28:19;;;;;;;10.23;5.80;;;5.30;90.20;;;;;;4102731;29;20134;-78
2023/12/15 07:30:21;;;;;;;9.55;6.07;;;5.30;90.20;;;;;;4102818;29;20051;-78
2023/12/15 07:32:23;;;;;;;11.60;6.75;;;5.30;90.50;;;;;;4102745;29;20532;-80
2023/12/15 07:34:25;;;;;;;9.32;5.95;;;5.20;90.20;;;;;;4102398;29;20055;-79
2023/12/15 07:36:26;;;;;;;10.57;6.70;;;5.20;90.50;;;;;;4102608;29;20365;-78
2023/12/15 07:38:29;;;;;;;12.07;6.72;;;5.20;90.60;;;;;;4102682;29;20102;-78
2023/12/15 07:40:30;;;;;;;9.55;6.40;;;5.20;90.60;;;;;;4102307;29;20110;-79
2023/12/15 07:42:32;;;;;;;10.52;6.63;;;5.20;90.60;;;;;;4102604;29;20598;-78
2023/12/15 07:44:33;;;;;;;10.77;6.30;;;5.20;90.70;;;;;;4102601;29;20051;-80
2023/12/15 07:46:35;;;;;;;11.00;6.35;;;5.20;90.60;;;;;;4102933;29;20055;-80
2023/12/15 07:48:37;;;;;;;10.35;6.25;;;5.20;90.70;;;;;;4102411;29;20098;-78
2023/12/15 07:50:39;;;;;;;11.60;6.72;;;5.20;90.60;;;;;;4102343;29;20051;-80
2023/12/15 07:52:41;;;;;;;10.30;6.30;;;5.20;90.60;;;;;;4102357;29;20062;-79
2023/12/15 07:54:44;;;;;;;10.43;6.40;;;5.20;90.60;;;;;;4102430;29;20483;-81
2023/12/15 07:56:46;;;;;;;14.35;7.55;;;5.20;90.60;;;;;;4102461;29;20086;-79
2023/12/15 07:58:49;;;;;;;11.55;7.05;;;5.20;90.50;;;;;;4102118;29;20058;-81
2023/12/15 08:00:51;;;;;;;12.18;7.57;;;5.30;90.60;;;;;;4102157;29;20063;-79
2023/12/15 08:02:53;;;;;;;11.30;7.10;;;5.20;90.60;;;;;;4102226;29;20055;-79
2023/12/15 08:04:55;;;;;;;11.05;7.13;;;5.20;90.70;;;;;;4102046;28;20047;-80
2023/12/15 08:06:57;;;;;;;12.00;7.45;;;5.20;90.70;;;;;;4102356;29;20105;-78
2023/12/15 08:08:59;;;;;;;11.73;7.53;;;5.20;90.70;;;;;;4102307;29;20047;-80
2023/12/15 08:11:02;;;;;;;14.05;7.80;;;5.20;90.80;;;;;;4102331;29;20059;-80
2023/12/15 08:13:04;;;;;;;13.68;7.68;;;5.20;90.80;;;;;;4102070;29;20110;-79
2023/12/15 08:15:07;;;;;;;12.70;7.38;;;5.20;90.70;;;;;;4102337;29;20440;-79
2023/12/15 08:17:08;;;;;;;14.82;7.85;;;5.30;90.80;;;;;;4101859;29;20055;-81
2023/12/15 08:19:10;;;;;;;14.55;7.95;;;5.30;90.70;;;;;;4102319;29;20543;-78
2023/12/15 08:21:12;;;;;;;12.63;7.85;;;5.30;90.80;;;;;;4102115;29;20472;-81
2023/12/15 08:23:13;;;;;;;12.35;7.70;;;5.30;90.70;;;;;;4101908;29;20114;-80
2023/12/15 08:25:15;;;;;;;15.35;8.32;;;5.30;90.70;;;;;;4101895;29;20043;-78
2023/12/15 08:27:20;;;;;;;12.82;7.65;;;5.40;90.70;;;;;;4102122;29;20059;-80
2023/12/15 08:29:22;;;;;;;13.55;7.72;;;5.40;90.70;;;;;;4101481;29;20058;-78
2023/12/15 08:31:25;;;;;;;13.07;7.80;;;5.40;90.50;;;;;;4101836;29;20082;-80
2023/12/15 08:33:27;;;;;;;13.30;7.85;;;5.40;90.40;;;;;;4101934;29;20455;-79
2023/12/15 08:35:29;;;;;;;12.73;7.82;;;5.40;90.60;;;;;;4102253;29;20138;-76
2023/12/15 08:37:30;;;;;;;14.82;8.07;;;5.40;90.60;;;;;;4101916;29;20459;-78
2023/12/15 08:39:32;;;;;;;13.80;7.60;;;5.50;90.50;;;;;;4101791;29;20113;-77
2023/12/15 08:41:34;;;;;;;14.40;7.80;;;5.40;90.40;;;;;;4101602;29;20106;-79
2023/12/15 08:43:37;;;;;;;14.27;8.32;;;5.50;90.50;;;;;;4101630;29;20051;-81
2023/12/15 08:45:39;;;;;;;34.28;21.63;;;5.50;90.50;;;;;;4101782;29;20075;-78
2023/12/15 08:47:41;;;;;;;16.30;9.50;;;5.50;90.50;;;;;;4101715;29;20090;-79
2023/12/15 08:49:43;;;;;;;12.73;7.90;;;5.60;90.50;;;;;;4101500;29;20106;-80
2023/12/15 08:51:45;;;;;;;14.85;8.30;;;5.60;90.30;;;;;;4101492;29;20082;-79
2023/12/15 08:53:46;;;;;;;15.05;9.30;;;5.60;90.30;;;;;;4101596;29;20102;-80
2023/12/15 08:55:48;;;;;;;13.68;8.48;;;5.60;90.20;;;;;;4101283;29;20420;-80
2023/12/15 08:57:51;;;;;;;13.57;8.73;;;5.60;90.30;;;;;;4101216;29;20401;-80
2023/12/15 08:59:54;;;;;;;15.98;8.93;;;5.70;90.30;;;;;;4101484;29;20051;-80
2023/12/15 09:01:56;;;;;;;13.55;8.07;;;5.60;90.50;;;;;;4101161;29;20054;-80
2023/12/15 09:03:58;;;;;;;16.13;8.10;;;5.70;90.50;;;;;;4101288;29;20072;-80
2023/12/15 09:05:59;;;;;;;15.95;9.13;;;5.70;90.50;;;;;;4101126;29;20087;-79
2023/12/15 09:08:02;;;;;;;15.82;8.73;;;5.70;90.60;;;;;;4101054;29;20066;-79
2023/12/15 09:10:04;;;;;;;15.63;8.73;;;5.70;90.40;;;;;;4101462;29;20089;-80
2023/12/15 09:12:07;;;;;;;14.50;8.90;;;5.70;90.50;;;;;;4101062;29;20079;-79
2023/12/15 09:14:09;;;;;;;18.15;9.77;;;5.70;90.50;;;;;;4101237;29;20382;-78
2023/12/15 09:16:12;;;;;;;15.27;9.13;;;5.60;90.50;;;;;;4100820;28;20051;-78
2023/12/15 09:18:14;;;;;;;18.27;9.40;;;5.70;90.80;;;;;;4100796;29;20059;-80
2023/12/15 09:20:15;;;;;;;14.45;8.85;;;5.70;90.80;;;;;;4100938;29;20046;-78
2023/12/15 09:22:20;;;;;;;17.20;9.27;;;5.70;90.80;;;;;;4101142;29;20043;-78
2023/12/15 09:24:22;;;;;;;15.70;9.35;;;5.80;90.80;;;;;;4100999;29;20047;-78
2023/12/15 09:26:24;;;;;;;16.50;9.02;;;5.80;90.90;;;;;;4100768;29;20109;-80
2023/12/15 09:28:26;;;;;;;15.25;9.23;;;5.80;90.50;;;;;;4101025;29;20404;-79
2023/12/15 09:30:28;;;;;;;15.07;9.20;;;5.80;90.50;;;;;;4101033;29;20526;-79
2023/12/15 09:32:31;;;;;;;15.18;9.55;;;5.90;90.70;;;;;;4100902;29;20055;-80
2023/12/15 09:34:33;;;;;;;15.38;9.23;;;5.80;90.50;;;;;;4101143;29;20106;-79
2023/12/15 09:36:35;;;;;;;14.35;9.02;;;5.80;90.60;;;;;;4100691;29;20047;-79
2023/12/15 09:38:37;;;;;;;15.60;9.68;;;5.80;90.60;;;;;;4100838;29;20428;-80
2023/12/15 09:40:38;;;;;;;17.60;9.60;;;5.90;90.80;;;;;;4100960;29;20118;-77
2023/12/15 09:42:39;;;;;;;15.35;9.32;;;5.90;90.50;;;;;;4100822;29;20043;-80
2023/12/15 09:44:41;;;;;;;14.95;8.93;;;6.00;90.60;;;;;;4100823;29;20051;-80
2023/12/15 09:46:44;;;;;;;14.73;9.13;;;6.00;90.60;;;;;;4100874;29;20051;-79
2023/12/15 09:48:46;;;;;;;13.88;8.95;;;6.00;90.50;;;;;;4100801;29;20051;-79
2023/12/15 09:50:52;;;;;;;13.02;8.73;;;6.00;90.50;;;;;;4100602;29;20487;-79
2023/12/15 09:52:56;;;;;;;15.32;8.93;;;6.00;90.50;;;;;;4100856;29;20083;-77
2023/12/15 09:54:58;;;;;;;14.48;8.85;;;6.10;90.50;;;;;;4100419;29;20055;-80
2023/12/15 09:56:59;;;;;;;14.40;8.20;;;6.10;90.50;;;;;;4100385;29;20141;-79
2023/12/15 09:59:01;;;;;;;12.75;8.45;;;6.10;90.40;;;;;;4100678;29;20088;-80
2023/12/15 10:01:03;;;;;;;14.70;8.90;;;6.10;90.40;;;;;;4100406;29;20110;-78
2023/12/15 10:03:05;;;;;;;15.73;9.50;;;6.20;90.40;;;;;;4100659;29;20142;-77
2023/12/15 10:05:09;;;;;;;13.77;8.80;;;6.20;90.40;;;;;;4100409;29;20051;-81
2023/12/15 10:07:11;;;;;;;16.50;9.30;;;6.20;90.40;;;;;;4100525;29;20183;-80
2023/12/15 10:09:13;;;;;;;14.55;8.48;;;6.20;90.50;;;;;;4100248;29;20047;-79
2023/12/15 10:11:17;;;;;;;13.98;8.40;;;6.30;90.50;;;;;;4100283;29;20523;-79
2023/12/15 10:13:19;;;;;;;14.60;8.63;;;6.30;90.30;;;;;;4100567;29;20193;-79
2023/12/15 10:15:20;;;;;;;14.80;8.68;;;6.30;90.40;;;;;;4100307;29;20055;-79
2023/12/15 10:17:22;;;;;;;13.70;8.75;;;6.30;90.40;;;;;;4100289;29;20125;-80
2023/12/15 10:19:24;;;;;;;15.60;8.32;;;6.30;90.30;;;;;;4100055;29;20449;-79
2023/12/15 10:21:27;;;;;;;13.63;7.80;;;6.30;90.30;;;;;;4099617;29;20411;-80
2023/12/15 10:23:33;;;;;;;13.70;7.90;;;6.40;90.20;;;;;;4100724;29;20102;-78
2023/12/15 10:25:34;;;;;;;14.43;9.02;;;6.30;90.20;;;;;;4101793;29;20070;-78
2023/12/15 10:27:36;;;;;;;12.75;8.10;;;6.40;90.40;;;;;;4100721;28;20118;-80
2023/12/15 10:29:39;;;;;;;12.38;7.43;;;6.50;90.10;;;;;;4087160;29;20404;-85
2023/12/15 10:31:41;;;;;;;11.73;6.85;;;6.40;89.40;;;;;;4104116;29;20058;-79
2023/12/15 10:33:45;;;;;;;11.65;6.88;;;6.40;89.20;;;;;;4104069;29;20047;-79
2023/12/15 10:35:48;;;;;;;12.27;6.70;;;6.40;88.90;;;;;;4103793;29;20488;-80
2023/12/15 10:37:51;;;;;;;11.45;6.75;;;6.40;89.30;;;;;;4103307;29;20054;-77
2023/12/15 10:39:55;;;;;;;11.75;7.00;;;6.50;88.80;;;;;;4103146;29;20055;-81
2023/12/15 10:41:59;;;;;;;11.88;6.38;;;6.50;88.80;;;;;;4103441;29;20119;-80
2023/12/15 10:44:02;;;;;;;12.23;7.10;;;6.50;89.00;;;;;;4103557;29;20240;-80
2023/12/15 10:46:08;;;;;;;10.60;6.53;;;6.50;89.10;;;;;;4103414;29;20051;-80
2023/12/15 10:48:12;;;;;;;11.40;6.57;;;6.50;88.90;;;;;;4103438;29;20044;-79
2023/12/15 10:50:14;;;;;;;10.35;6.80;;;6.50;88.70;;;;;;4103097;29;20484;-80
2023/12/15 10:52:15;;;;;;;14.90;8.23;;;6.60;88.60;;;;;;4103151;29;20114;-79
2023/12/15 10:54:19;;;;;;;19.00;11.38;;;6.60;88.50;;;;;;4103191;29;20047;-80
2023/12/15 10:56:22;;;;;;;11.50;6.65;;;6.60;88.10;;;;;;4103581;29;20079;-79
2023/12/15 10:58:24;;;;;;;11.50;6.80;;;6.70;88.40;;;;;;4103425;29;20102;-80
2023/12/15 11:00:26;;;;;;;10.00;6.22;;;6.80;88.00;;;;;;4102831;29;20105;-77
2023/12/15 11:02:30;;;;;;;10.38;6.20;;;6.80;87.60;;;;;;4103040;29;20117;-80
2023/12/15 11:04:32;;;;;;;9.90;6.35;;;6.80;87.20;;;;;;4102891;29;20134;-78
2023/12/15 11:06:33;;;;;;;11.00;6.45;;;6.80;87.00;;;;;;4103204;29;20043;-77
2023/12/15 11:08:35;;;;;;;10.52;6.03;;;6.80;87.20;;;;;;4103335;29;20078;-78
2023/12/15 11:10:38;;;;;;;11.35;6.50;;;6.80;87.80;;;;;;4102913;29;20047;-79
2023/12/15 11:12:41;;;;;;;10.25;5.97;;;6.90;87.20;;;;;;4102958;29;20460;-80
2023/12/15 11:14:42;;;;;;;9.95;6.28;;;6.90;87.10;;;;;;4102903;29;20047;-80
2023/12/15 11:16:46;;;;;;;10.75;6.50;;;6.90;86.20;;;;;;4102890;29;20179;-79
2023/12/15 11:18:51;;;;;;;11.13;5.93;;;6.90;86.90;;;;;;4102745;29;20098;-79
2023/12/15 11:20:53;;;;;;;24.47;13.50;;;6.90;87.70;;;;;;4103220;29;20061;-80
2023/12/15 11:23:04;;;;;;;10.80;6.10;;;6.90;86.80;;;;;;4102892;29;20047;-78
2023/12/15 11:25:08;;;;;;;10.32;6.22;;;6.80;87.10;;;;;;4102807;29;20051;-80
2023/12/15 11:27:13;;;;;;;9.82;5.85;;;6.80;87.20;;;;;;4102791;29;20559;-79
2023/12/15 11:29:16;;;;;;;10.88;6.95;;;6.90;86.80;;;;;;4102681;29;20141;-80
2023/12/15 11:31:28;;;;;;;9.77;6.43;;;7.00;86.60;;;;;;4102872;29;20051;-79
2023/12/15 11:33:41;;;;;;;11.70;6.43;;;7.10;86.20;;;;;;4102861;29;20059;-78
2023/12/15 11:35:43;;;;;;;10.18;6.63;;;7.10;85.90;;;;;;4102850;29;20047;-78
2023/12/15 11:37:46;;;;;;;10.25;6.32;;;7.20;85.50;;;;;;4102672;29;20058;-78
2023/12/15 11:39:48;;;;;;;12.40;7.13;;;7.30;85.10;;;;;;4101908;28;20050;-81
2023/12/15 11:41:50;;;;;;;11.07;6.15;;;7.20;84.70;;;;;;4102853;29;20110;-80
2023/12/15 11:43:53;;;;;;;11.57;6.38;;;7.20;85.00;;;;;;4102666;29;20548;-78
2023/12/15 11:45:54;;;;;;;11.50;6.78;;;7.30;84.90;;;;;;4102211;29;20476;-79
2023/12/15 11:47:56;;;;;;;11.07;6.55;;;7.20;85.00;;;;;;4102341;29;20066;-79
2023/12/15 11:49:59;;;;;;;11.13;6.32;;;7.30;85.20;;;;;;4102216;29;20094;-79
2023/12/15 11:52:04;;;;;;;12.38;6.78;;;7.30;84.00;;;;;;4102403;29;20062;-78
2023/12/15 11:54:07;;;;;;;11.18;6.78;;;7.30;84.20;;;;;;4102627;29;20051;-78
2023/12/15 11:56:10;;;;;;;11.30;6.63;;;7.40;84.00;;;;;;4102607;29;20050;-79
2023/12/15 11:58:14;;;;;;;10.95;7.20;;;7.40;83.90;;;;;;4102197;29;20058;-79
2023/12/15 12:00:19;;;;;;;10.48;6.20;;;7.30;84.30;;;;;;4102227;29;20460;-79
2023/12/15 12:02:21;;;;;;;12.20;6.85;;;7.20;83.90;;;;;;4101881;29;20055;-78
2023/12/15 12:04:24;;;;;;;10.68;6.57;;;7.20;84.30;;;;;;4102364;29;20456;-80
2023/12/15 12:06:26;;;;;;;10.60;6.38;;;7.20;84.90;;;;;;4102383;29;20059;-79
2023/12/15 12:08:27;;;;;;;12.45;6.88;;;7.30;84.70;;;;;;4102177;29;20059;-78
2023/12/15 12:10:31;;;;;;;10.80;6.38;;;7.30;84.90;;;;;;4102321;29;20051;-80
2023/12/15 12:12:33;;;;;;;11.70;6.63;;;7.40;84.70;;;;;;4102221;29;20102;-79
2023/12/15 12:14:41;;;;;;;12.07;6.82;;;7.40;84.50;;;;;;4101877;29;20106;-78
2023/12/15 12:16:51;;;;;;;11.75;6.13;;;7.40;84.10;;;;;;4102366;29;20051;-79
2023/12/15 12:18:53;;;;;;;12.55;6.32;;;7.40;85.00;;;;;;4102151;29;20086;-80
2023/12/15 12:20:55;;;;;;;11.07;6.68;;;7.40;84.30;;;;;;4102558;29;20110;-78
2023/12/15 12:22:58;;;;;;;11.93;6.70;;;7.50;83.90;;;;;;4102222;29;20051;-79
2023/12/15 12:25:01;;;;;;;10.32;6.30;;;7.60;84.00;;;;;;4101471;29;20049;-80
2023/12/15 12:27:05;;;;;;;10.32;6.38;;;7.50;83.60;;;;;;4102257;29;20056;-78
2023/12/15 12:29:07;;;;;;;13.45;7.75;;;7.40;83.90;;;;;;4103124;29;20047;-81
2023/12/15 12:31:09;;;;;;;10.77;6.28;;;7.50;84.40;;;;;;4104211;29;20106;-80
2023/12/15 12:33:13;;;;;;;11.27;6.35;;;7.50;84.20;;;;;;4104388;29;20051;-80
2023/12/15 12:35:15;;;;;;;10.63;6.10;;;7.60;84.30;;;;;;4102172;29;20131;-77
2023/12/15 12:37:17;;;;;;;11.65;7.00;;;7.50;84.40;;;;;;4101780;29;20062;-79
2023/12/15 12:39:23;;;;;;;10.02;6.05;;;7.50;84.20;;;;;;4101744;29;20051;-81
2023/12/15 12:41:25;;;;;;;10.98;6.40;;;7.50;84.40;;;;;;4102025;29;20055;-79
2023/12/15 12:43:27;;;;;;;10.23;6.65;;;7.50;83.80;;;;;;4101055;29;20086;-79
2023/12/15 12:45:31;;;;;;;10.52;6.13;;;7.40;84.30;;;;;;4101668;29;20114;-81
2023/12/15 12:47:36;;;;;;;11.98;6.88;;;7.50;84.40;;;;;;4101948;29;20051;-80
2023/12/15 12:49:40;;;;;;;9.93;5.80;;;7.50;84.50;;;;;;4101217;29;20047;-78
2023/12/15 12:51:42;;;;;;;9.18;5.88;;;7.60;84.40;;;;;;4100392;28;20109;-79
2023/12/15 12:53:45;;;;;;;9.85;6.00;;;7.60;84.30;;;;;;4101187;29;20179;-79
2023/12/15 12:55:47;;;;;;;9.88;6.03;;;7.60;83.70;;;;;;4100887;29;20055;-78
2023/12/15 12:57:48;;;;;;;10.15;6.07;;;7.70;83.90;;;;;;4101290;29;20102;-78
2023/12/15 12:59:50;;;;;;;11.38;5.75;;;7.80;83.80;;;;;;4101320;29;20062;-80
2023/12/15 13:01:52;;;;;;;9.77;5.70;;;7.90;83.20;;;;;;4100925;29;20051;-79
2023/12/15 13:03:53;;;;;;;9.30;5.40;;;7.90;83.10;;;;;;4101411;29;20051;-79
2023/12/15 13:05:57;;;;;;;10.13;5.65;;;8.10;82.60;;;;;;4101335;29;20047;-79
2023/12/15 13:07:59;;;;;;;9.75;5.63;;;8.20;81.60;;;;;;4100992;29;20381;-77
2023/12/15 13:10:01;;;;;;;8.93;5.30;;;8.20;82.00;;;;;;4098954;28;20055;-78
2023/12/15 13:12:02;;;;;;;11.13;5.82;;;8.20;81.60;;;;;;4083235;29;20059;-78
2023/12/15 13:14:04;;;;;;;9.50;5.55;;;8.20;82.10;;;;;;4083333;29;20079;-79
2023/12/15 13:16:08;;;;;;;8.65;5.30;;;8.00;81.50;;;;;;4085824;29;20047;-77
2023/12/15 13:18:10;;;;;;;11.18;5.63;;;7.90;81.20;;;;;;4099560;29;20437;-79
2023/12/15 13:20:11;;;;;;;8.52;5.22;;;7.80;81.70;;;;;;4099159;29;20110;-79
2023/12/15 13:22:14;;;;;;;8.73;5.57;;;7.80;82.40;;;;;;4098744;29;20094;-77
2023/12/15 13:24:16;;;;;;;9.32;5.32;;;7.90;82.30;;;;;;4099385;29;20058;-80
2023/12/15 13:26:18;;;;;;;9.10;5.72;;;7.80;82.40;;;;;;4098829;29;21290;-79
2023/12/15 13:28:20;;;;;;;9.20;5.38;;;7.90;81.70;;;;;;4098745;29;20126;-81
2023/12/15 13:30:22;;;;;;;9.02;5.30;;;7.90;81.70;;;;;;4099382;29;20433;-78
2023/12/15 13:32:23;;;;;;;8.98;5.53;;;7.90;81.30;;;;;;4098886;29;20201;-79
2023/12/15 13:34:25;;;;;;;8.82;5.18;;;8.00;80.70;;;;;;4096535;29;20053;-80
2023/12/15 13:36:27;;;;;;;9.35;5.38;;;8.10;80.40;;;;;;4098823;29;20047;-77
2023/12/15 13:38:30;;;;;;;9.48;5.78;;;7.90;81.20;;;;;;4098985;29;20535;-79
2023/12/15 13:40:32;;;;;;;9.77;5.55;;;8.00;80.80;;;;;;4098859;29;20051;-78
2023/12/15 13:42:35;;;;;;;8.00;5.28;;;7.90;81.00;;;;;;4098605;29;20121;-79
2023/12/15 13:44:37;;;;;;;8.30;5.13;;;7.80;81.40;;;;;;4099173;29;20055;-81
2023/12/15 13:46:39;;;;;;;9.68;4.80;;;7.80;81.80;;;;;;4098557;29;20051;-78
2023/12/15 13:48:41;;;;;;;8.50;5.18;;;7.80;81.90;;;;;;4099416;29;20078;-79
2023/12/15 13:50:43;;;;;;;8.00;4.75;;;7.80;82.20;;;;;;4099221;29;20066;-79
2023/12/15 13:52:45;;;;;;;7.75;4.97;;;7.80;82.40;;;;;;4098778;29;20125;-84
2023/12/15 13:54:49;;;;;;;8.85;5.03;;;7.80;82.10;;;;;;4099853;29;20055;-81
2023/12/15 13:56:52;;;;;;;8.25;5.05;;;7.80;81.90;;;;;;4099106;29;20062;-81
2023/12/15 13:58:54;;;;;;;7.57;4.63;;;7.80;81.60;;;;;;4099970;29;20665;-82
2023/12/15 14:00:54;;;;;;;8.23;4.78;;;7.80;81.70;;;;;;4099582;29;20500;-81
2023/12/15 14:02:56;;;;;;;12.60;4.60;;;7.80;82.20;;;;;;4098886;28;20055;-84
2023/12/15 14:04:58;;;;;;;9.75;4.63;;;7.80;81.50;;;;;;4099889;29;20106;-83
2023/12/15 14:07:00;;;;;;;8.07;4.53;;;7.80;81.60;;;;;;4099619;29;20400;-82
2023/12/15 14:09:06;;;;;;;7.35;4.60;;;7.70;82.00;;;;;;4100184;29;20058;-83
2023/12/15 14:11:09;;;;;;;;;;;7.70;82.00;;;;;;4099627;29;20062;-84
2023/12/15 14:13:11;;;;;;;6.85;4.30;;;7.80;82.60;;;;;;4099350;29;19922;-82
2023/12/15 14:15:13;;;;;;;8.50;4.63;;;7.80;82.00;;;;;;4101379;29;20461;-87
2023/12/15 14:17:16;;;;;;;7.93;4.13;;;7.80;81.80;;;;;;4100712;29;20090;-85
2023/12/15 14:19:18;;;;;;;7.20;3.97;;;7.80;81.40;;;;;;4100531;29;20063;-85
2023/12/15 14:21:20;;;;;;;7.38;4.15;;;7.70;81.60;;;;;;4099485;29;20051;-83
2023/12/15 14:23:22;;;;;;;7.82;3.90;;;7.70;82.20;;;;;;4099595;29;20055;-84
2023/12/15 14:25:24;;;;;;;8.02;4.47;;;7.60;82.80;;;;;;4099473;29;20071;-83
2023/12/15 14:27:28;;;;;;;6.68;3.58;;;7.60;82.80;;;;;;4100219;29;20062;-81
2023/12/15 14:29:30;;;;;;;6.22;3.42;;;7.60;81.80;;;;;;4099582;29;20055;-82
2023/12/15 14:31:32;;;;;;;7.25;3.47;;;7.50;81.70;;;;;;4099833;29;20094;-83
2023/12/15 14:33:34;;;;;;;7.38;3.22;;;7.50;82.60;;;;;;4097867;29;20509;-85
2023/12/15 14:35:36;;;;;;;6.13;3.40;;;7.40;82.80;;;;;;4099832;29;20059;-84
2023/12/15 14:37:38;;;;;;;6.85;3.30;;;7.40;82.90;;;;;;4099563;29;20200;-83
2023/12/15 14:39:40;;;;;;;5.90;3.47;;;7.40;82.50;;;;;;4099769;29;20055;-85
2023/12/15 14:41:42;;;;;;;6.65;3.28;;;7.40;82.80;;;;;;4100178;29;20067;-84
2023/12/15 14:43:45;;;;;;;7.78;3.08;;;7.40;82.80;;;;;;4100274;29;20055;-83
2023/12/15 14:45:47;;;;;;;7.20;3.60;;;7.40;82.90;;;;;;4100478;29;20134;-83
2023/12/15 14:47:51;;;;;;;6.03;3.30;;;7.40;83.10;;;;;;4099197;29;20047;-83
2023/12/15 14:49:52;;;;;;;5.72;3.10;;;7.40;83.40;;;;;;4099834;29;20448;-82
2023/12/15 14:51:54;;;;;;;5.32;2.70;;;7.50;83.00;;;;;;4100135;29;20059;-85
2023/12/15 14:53:57;;;;;;;5.50;3.15;;;7.40;82.70;;;;;;4099977;29;20082;-82
2023/12/15 14:55:58;;;;;;;6.07;3.30;;;7.40;82.70;;;;;;4098598;29;20059;-84
2023/12/15 14:58:00;;;;;;;12.40;6.60;;;7.50;82.60;;;;;;4098758;29;20067;-85
2023/12/15 15:00:06;;;;;;;7.82;4.25;;;7.50;82.70;;;;;;4102254;29;20114;-86
2023/12/15 15:02:09;;;;;;;12.40;5.90;;;7.50;82.60;;;;;;4099997;29;20493;-86
2023/12/15 15:04:11;;;;;;;5.22;2.80;;;7.50;82.50;;;;;;4099768;29;20087;-86
2023/12/15 15:06:12;;;;;;;4.55;2.40;;;7.50;81.80;;;;;;4098941;29;20050;-87
2023/12/15 15:08:14;;;;;;;4.68;2.38;;;7.50;81.60;;;;;;4099232;29;20058;-85
2023/12/15 15:10:16;;;;;;;7.40;2.45;;;7.40;82.50;;;;;;4099880;29;20114;-86
2023/12/15 15:12:18;;;;;;;4.45;2.65;;;7.40;81.80;;;;;;4099826;29;20139;-86
2023/12/15 15:14:20;;;;;;;5.93;2.50;;;7.30;82.40;;;;;;4100128;28;20055;-86
2023/12/15 15:16:24;;;;;;;4.88;2.10;;;7.30;82.70;;;;;;4102352;29;20405;-86
2023/12/15 15:18:26;;;;;;;4.07;2.20;;;7.30;82.50;;;;;;4103991;29;20047;-82
2023/12/15 15:20:28;;;;;;;4.15;2.20;;;7.30;82.50;;;;;;4102461;29;20110;-79
2023/12/15 15:22:29;;;;;;;6.43;2.25;;;7.40;82.40;;;;;;4101504;29;20082;-81
2023/12/15 15:24:31;;;;;;;5.40;2.10;;;7.40;82.10;;;;;;4102033;29;20063;-82
2023/12/15 15:26:33;;;;;;;5.18;2.20;;;7.30;82.00;;;;;;4102815;29;20471;-81
2023/12/15 15:28:35;;;;;;;4.03;2.20;;;7.30;82.30;;;;;;4102506;29;20039;-81
2023/12/15 15:30:38;;;;;;;4.57;2.20;;;7.30;82.30;;;;;;4102885;29;20115;-83
2023/12/15 15:32:41;;;;;;;4.50;2.20;;;7.30;82.50;;;;;;4084707;29;20058;-79
2023/12/15 15:34:42;;;;;;;4.88;2.60;;;7.40;82.50;;;;;;4101915;29;20055;-80
2023/12/15 15:36:44;;;;;;;5.00;2.55;;;7.40;82.60;;;;;;4101525;29;20055;-81
2023/12/15 15:38:46;;;;;;;6.32;2.47;;;7.40;82.90;;;;;;4100906;29;20055;-80
2023/12/15 15:40:48;;;;;;;4.55;2.20;;;7.40;82.70;;;;;;4102446;29;20047;-82
2023/12/15 15:42:51;;;;;;;4.57;2.40;;;7.30;83.60;;;;;;4103054;29;20059;-78
2023/12/15 15:44:53;;;;;;;4.95;2.40;;;7.30;83.10;;;;;;4100492;29;20079;-80
2023/12/15 15:46:55;;;;;;;5.50;2.55;;;7.40;83.00;;;;;;4100931;29;20054;-80
2023/12/15 15:48:59;;;;;;;4.93;2.50;;;7.50;82.40;;;;;;4100089;29;20051;-80
2023/12/15 15:51:01;;;;;;;4.95;2.50;;;7.50;82.30;;;;;;4100722;29;20094;-79
2023/12/15 15:53:04;;;;;;;8.00;3.50;;;7.50;82.50;;;;;;4100355;29;20051;-80
2023/12/15 15:55:07;;;;;;;6.10;3.33;;;7.40;82.00;;;;;;4101038;29;20078;-81
2023/12/15 15:57:09;;;;;;;6.65;2.90;;;7.50;82.40;;;;;;4100798;29;20109;-81
2023/12/15 15:59:11;;;;;;;5.05;2.80;;;7.50;82.30;;;;;;4100115;29;20482;-81
2023/12/15 16:01:22;;;;;;;6.65;2.30;;;7.50;82.20;;;;;;4099970;29;20063;-80
2023/12/15 16:03:24;;;;;;;4.90;2.70;;;7.50;82.30;;;;;;4101075;29;20051;-81
2023/12/15 16:05:28;;;;;;;4.15;2.10;;;7.60;82.60;;;;;;4100366;29;20055;-79
2023/12/15 16:07:29;;;;;;;4.18;2.35;;;7.60;82.70;;;;;;4100556;29;20070;-78
2023/12/15 16:09:31;;;;;;;5.10;2.45;;;7.60;82.70;;;;;;4100354;29;20051;-81
2023/12/15 16:11:33;;;;;;;6.55;2.50;;;7.60;82.90;;;;;;4100404;29;20047;-80
2023/12/15 16:13:35;;;;;;;15.13;8.73;;;7.70;83.00;;;;;;4100764;29;20055;-79
2023/12/15 16:15:37;;;;;;;44.97;25.05;;;7.60;82.90;;;;;;4098533;28;20048;-79
2023/12/15 16:17:40;;;;;;;49.13;25.20;;;7.60;83.10;;;;;;4098447;29;20046;-80
2023/12/15 16:19:41;;;;;;;38.60;20.50;;;7.70;82.90;;;;;;4097991;29;20105;-79
2023/12/15 16:21:44;;;;;;;36.90;20.05;;;7.60;82.40;;;;;;4100898;29;20444;-79
2023/12/15 16:23:46;;;;;;;28.85;15.73;;;7.70;82.40;;;;;;4101814;29;20567;-81
2023/12/15 16:25:48;;;;;;;11.88;5.90;;;7.70;82.30;;;;;;4100176;28;20126;-80
2023/12/15 16:27:51;;;;;;;6.75;3.78;;;7.70;81.90;;;;;;4101371;29;20047;-82
2023/12/15 16:29:52;;;;;;;5.25;2.80;;;7.70;82.40;;;;;;4101370;29;20070;-81
2023/12/15 16:31:54;;;;;;;4.93;2.75;;;7.70;82.40;;;;;;4105433;28;20077;-80
2023/12/15 16:33:56;;;;;;;6.28;3.25;;;7.70;82.40;;;;;;4115093;28;20054;-81
2023/12/15 16:35:59;;;;;;;6.72;3.45;;;7.60;82.10;;;;;;4117325;28;20061;-81
2023/12/15 16:38:04;;;;;;;7.00;3.55;;;7.60;81.70;;;;;;4117584;28;20407;-82
2023/12/15 16:40:08;;;;;;;6.93;3.63;;;7.60;81.90;;;;;;4118212;28;20054;-82
2023/12/15 16:42:11;;;;;;;7.55;3.85;;;7.60;82.00;;;;;;4117167;28;20051;-79